sensor_id;sensor_type;location;lat;lon;timestamp;P1;durP1;ratioP1;P2;durP2;ratioP2
16662;SDS011;8445;51.270;9.434;2023-03-23T00:01:34;3.97;;;1.80;;
16662;SDS011;8445;51.270;9.434;2023-03-23T00:04:10;2.05;;;1.85;;
16662;SDS011;8445;51.270;9.434;2023-03-23T00:06:52;6.93;;;1.50;;
16662;SDS011;8445;51.270;9.434;2023-03-23T00:10:17;2.63;;;1.60;;
16662;SDS011;8445;51.270;9.434;2023-03-23T00:16:35;2.50;;;1.35;;
16662;SDS011;8445;51.270;9.434;2023-03-23T00:19:33;3.00;;;1.60;;
16662;SDS011;8445;51.270;9.434;2023-03-23T00:25:37;2.00;;;1.50;;
16662;SDS011;8445;51.270;9.434;2023-03-23T00:28:26;3.05;;;1.42;;
16662;SDS011;8445;51.270;9.434;2023-03-23T00:31:45;2.42;;;1.35;;
16662;SDS011;8445;51.270;9.434;2023-03-23T00:35:24;5.00;;;1.60;;
16662;SDS011;8445;51.270;9.434;2023-03-23T00:38:20;2.85;;;1.52;;
16662;SDS011;8445;51.270;9.434;2023-03-23T00:41:19;2.30;;;1.40;;
16662;SDS011;8445;51.270;9.434;2023-03-23T00:47:36;1.33;;;1.23;;
16662;SDS011;8445;51.270;9.434;2023-03-23T00:50:32;3.42;;;1.27;;
16662;SDS011;8445;51.270;9.434;2023-03-23T00:56:30;2.08;;;1.60;;
16662;SDS011;8445;51.270;9.434;2023-03-23T00:59:57;3.05;;;1.67;;
16662;SDS011;8445;51.270;9.434;2023-03-23T01:03:26;2.97;;;1.40;;
16662;SDS011;8445;51.270;9.434;2023-03-23T01:06:10;3.78;;;1.65;;
16662;SDS011;8445;51.270;9.434;2023-03-23T01:09:45;5.15;;;1.70;;
16662;SDS011;8445;51.270;9.434;2023-03-23T01:15:24;1.92;;;1.48;;
16662;SDS011;8445;51.270;9.434;2023-03-23T01:21:29;5.53;;;1.52;;
16662;SDS011;8445;51.270;9.434;2023-03-23T01:24:07;2.30;;;1.50;;
16662;SDS011;8445;51.270;9.434;2023-03-23T01:26:37;1.98;;;1.45;;
16662;SDS011;8445;51.270;9.434;2023-03-23T01:29:05;2.17;;;1.80;;
16662;SDS011;8445;51.270;9.434;2023-03-23T01:31:37;1.98;;;1.50;;
16662;SDS011;8445;51.270;9.434;2023-03-23T01:34:07;2.78;;;1.65;;
16662;SDS011;8445;51.270;9.434;2023-03-23T01:36:42;2.33;;;1.40;;
16662;SDS011;8445;51.270;9.434;2023-03-23T01:39:23;2.22;;;1.50;;
16662;SDS011;8445;51.270;9.434;2023-03-23T01:41:54;1.83;;;1.42;;
16662;SDS011;8445;51.270;9.434;2023-03-23T01:46:55;1.42;;;1.27;;
16662;SDS011;8445;51.270;9.434;2023-03-23T01:49:29;2.33;;;1.42;;
16662;SDS011;8445;51.270;9.434;2023-03-23T01:52:02;2.92;;;1.45;;
16662;SDS011;8445;51.270;9.434;2023-03-23T01:54:31;2.65;;;1.30;;
16662;SDS011;8445;51.270;9.434;2023-03-23T01:57:06;2.55;;;1.30;;
16662;SDS011;8445;51.270;9.434;2023-03-23T01:59:39;4.07;;;1.58;;
16662;SDS011;8445;51.270;9.434;2023-03-23T02:02:21;3.05;;;1.50;;
16662;SDS011;8445;51.270;9.434;2023-03-23T02:04:49;2.17;;;1.30;;
16662;SDS011;8445;51.270;9.434;2023-03-23T02:07:15;5.88;;;1.73;;
16662;SDS011;8445;51.270;9.434;2023-03-23T02:09:49;2.42;;;1.50;;
16662;SDS011;8445;51.270;9.434;2023-03-23T02:12:25;4.28;;;1.83;;
16662;SDS011;8445;51.270;9.434;2023-03-23T02:14:53;3.13;;;1.48;;
16662;SDS011;8445;51.270;9.434;2023-03-23T02:17:31;2.13;;;1.70;;
16662;SDS011;8445;51.270;9.434;2023-03-23T02:23:07;1.67;;;1.55;;
16662;SDS011;8445;51.270;9.434;2023-03-23T02:25:58;2.67;;;1.50;;
16662;SDS011;8445;51.270;9.434;2023-03-23T02:34:17;2.78;;;1.50;;
16662;SDS011;8445;51.270;9.434;2023-03-23T02:36:50;1.88;;;1.48;;
16662;SDS011;8445;51.270;9.434;2023-03-23T02:39:22;1.50;;;1.40;;
16662;SDS011;8445;51.270;9.434;2023-03-23T02:41:55;3.85;;;1.63;;
16662;SDS011;8445;51.270;9.434;2023-03-23T02:44:24;3.45;;;1.48;;
16662;SDS011;8445;51.270;9.434;2023-03-23T02:46:57;1.75;;;1.10;;
16662;SDS011;8445;51.270;9.434;2023-03-23T02:49:27;1.40;;;1.08;;
16662;SDS011;8445;51.270;9.434;2023-03-23T02:51:58;2.28;;;1.40;;
16662;SDS011;8445;51.270;9.434;2023-03-23T02:54:25;2.67;;;1.45;;
16662;SDS011;8445;51.270;9.434;2023-03-23T02:56:57;1.50;;;1.40;;
16662;SDS011;8445;51.270;9.434;2023-03-23T02:59:27;3.25;;;1.60;;
16662;SDS011;8445;51.270;9.434;2023-03-23T03:02:01;1.45;;;1.35;;
16662;SDS011;8445;51.270;9.434;2023-03-23T03:04:36;1.38;;;1.27;;
16662;SDS011;8445;51.270;9.434;2023-03-23T03:15:40;2.55;;;2.20;;
16662;SDS011;8445;51.270;9.434;2023-03-23T03:18:56;3.33;;;1.90;;
16662;SDS011;8445;51.270;9.434;2023-03-23T03:21:35;3.00;;;1.70;;
16662;SDS011;8445;51.270;9.434;2023-03-23T03:24:04;4.25;;;1.60;;
16662;SDS011;8445;51.270;9.434;2023-03-23T03:26:36;2.50;;;1.80;;
16662;SDS011;8445;51.270;9.434;2023-03-23T03:29:18;4.35;;;1.60;;
16662;SDS011;8445;51.270;9.434;2023-03-23T03:31:49;3.17;;;1.90;;
16662;SDS011;8445;51.270;9.434;2023-03-23T03:34:17;5.32;;;1.85;;
16662;SDS011;8445;51.270;9.434;2023-03-23T03:36:47;3.78;;;1.60;;
16662;SDS011;8445;51.270;9.434;2023-03-23T03:39:15;4.43;;;1.90;;
16662;SDS011;8445;51.270;9.434;2023-03-23T03:41:43;3.50;;;1.88;;
16662;SDS011;8445;51.270;9.434;2023-03-23T03:44:15;2.03;;;1.63;;
16662;SDS011;8445;51.270;9.434;2023-03-23T03:46:43;3.05;;;2.08;;
16662;SDS011;8445;51.270;9.434;2023-03-23T03:49:12;3.10;;;2.38;;
16662;SDS011;8445;51.270;9.434;2023-03-23T03:51:41;3.47;;;2.20;;
16662;SDS011;8445;51.270;9.434;2023-03-23T03:54:17;4.05;;;2.13;;
16662;SDS011;8445;51.270;9.434;2023-03-23T03:56:46;2.33;;;1.73;;
16662;SDS011;8445;51.270;9.434;2023-03-23T03:59:32;3.08;;;2.00;;
16662;SDS011;8445;51.270;9.434;2023-03-23T04:02:36;3.75;;;1.80;;
16662;SDS011;8445;51.270;9.434;2023-03-23T04:05:01;2.72;;;2.13;;
16662;SDS011;8445;51.270;9.434;2023-03-23T04:07:31;2.88;;;2.03;;
16662;SDS011;8445;51.270;9.434;2023-03-23T04:09:57;4.53;;;1.98;;
16662;SDS011;8445;51.270;9.434;2023-03-23T04:12:38;4.32;;;1.88;;
16662;SDS011;8445;51.270;9.434;2023-03-23T04:15:36;4.35;;;1.77;;
16662;SDS011;8445;51.270;9.434;2023-03-23T04:18:07;1.98;;;1.63;;
16662;SDS011;8445;51.270;9.434;2023-03-23T04:20:34;3.85;;;2.05;;
16662;SDS011;8445;51.270;9.434;2023-03-23T04:23:01;3.42;;;1.67;;
16662;SDS011;8445;51.270;9.434;2023-03-23T04:25:28;2.13;;;1.98;;
16662;SDS011;8445;51.270;9.434;2023-03-23T04:28:03;2.30;;;1.95;;
16662;SDS011;8445;51.270;9.434;2023-03-23T04:30:36;2.70;;;2.05;;
16662;SDS011;8445;51.270;9.434;2023-03-23T04:33:09;3.35;;;1.50;;
16662;SDS011;8445;51.270;9.434;2023-03-23T04:35:40;3.53;;;2.00;;
16662;SDS011;8445;51.270;9.434;2023-03-23T04:38:21;3.13;;;1.75;;
16662;SDS011;8445;51.270;9.434;2023-03-23T04:40:58;4.70;;;2.33;;
16662;SDS011;8445;51.270;9.434;2023-03-23T04:43:39;2.67;;;2.08;;
16662;SDS011;8445;51.270;9.434;2023-03-23T04:46:39;6.95;;;2.20;;
16662;SDS011;8445;51.270;9.434;2023-03-23T04:49:08;4.82;;;2.17;;
16662;SDS011;8445;51.270;9.434;2023-03-23T04:51:40;2.97;;;1.98;;
16662;SDS011;8445;51.270;9.434;2023-03-23T04:54:22;3.70;;;2.25;;
16662;SDS011;8445;51.270;9.434;2023-03-23T04:56:52;2.25;;;2.08;;
16662;SDS011;8445;51.270;9.434;2023-03-23T04:59:23;2.75;;;2.35;;
16662;SDS011;8445;51.270;9.434;2023-03-23T05:02:11;5.97;;;2.83;;
16662;SDS011;8445;51.270;9.434;2023-03-23T05:04:38;3.58;;;2.78;;
16662;SDS011;8445;51.270;9.434;2023-03-23T05:07:27;5.07;;;3.60;;
16662;SDS011;8445;51.270;9.434;2023-03-23T05:09:53;4.30;;;3.33;;
16662;SDS011;8445;51.270;9.434;2023-03-23T05:12:27;6.88;;;3.47;;
16662;SDS011;8445;51.270;9.434;2023-03-23T05:15:03;4.15;;;3.30;;
16662;SDS011;8445;51.270;9.434;2023-03-23T05:17:37;5.32;;;3.20;;
16662;SDS011;8445;51.270;9.434;2023-03-23T05:20:15;9.20;;;3.67;;
16662;SDS011;8445;51.270;9.434;2023-03-23T05:22:51;6.18;;;3.55;;
16662;SDS011;8445;51.270;9.434;2023-03-23T05:25:23;5.75;;;3.50;;
16662;SDS011;8445;51.270;9.434;2023-03-23T05:27:57;3.80;;;2.90;;
16662;SDS011;8445;51.270;9.434;2023-03-23T05:30:38;3.72;;;3.00;;
16662;SDS011;8445;51.270;9.434;2023-03-23T05:33:06;4.75;;;2.75;;
16662;SDS011;8445;51.270;9.434;2023-03-23T05:35:45;4.00;;;2.33;;
16662;SDS011;8445;51.270;9.434;2023-03-23T05:38:14;3.35;;;2.35;;
16662;SDS011;8445;51.270;9.434;2023-03-23T05:40:50;4.35;;;2.13;;
16662;SDS011;8445;51.270;9.434;2023-03-23T05:43:23;3.05;;;2.10;;
16662;SDS011;8445;51.270;9.434;2023-03-23T05:46:07;4.50;;;2.42;;
16662;SDS011;8445;51.270;9.434;2023-03-23T05:48:37;3.75;;;2.10;;
16662;SDS011;8445;51.270;9.434;2023-03-23T05:51:07;2.35;;;2.15;;
16662;SDS011;8445;51.270;9.434;2023-03-23T05:53:37;2.20;;;1.98;;
16662;SDS011;8445;51.270;9.434;2023-03-23T05:56:09;2.83;;;2.10;;
16662;SDS011;8445;51.270;9.434;2023-03-23T05:59:00;3.78;;;2.63;;
16662;SDS011;8445;51.270;9.434;2023-03-23T06:01:38;2.83;;;2.08;;
16662;SDS011;8445;51.270;9.434;2023-03-23T06:04:21;4.65;;;2.40;;
16662;SDS011;8445;51.270;9.434;2023-03-23T06:07:28;2.38;;;2.17;;
16662;SDS011;8445;51.270;9.434;2023-03-23T06:09:59;2.47;;;2.28;;
16662;SDS011;8445;51.270;9.434;2023-03-23T06:12:38;4.03;;;2.13;;
16662;SDS011;8445;51.270;9.434;2023-03-23T06:15:28;3.50;;;2.10;;
16662;SDS011;8445;51.270;9.434;2023-03-23T06:18:32;7.45;;;3.22;;
16662;SDS011;8445;51.270;9.434;2023-03-23T06:21:25;4.13;;;2.40;;
16662;SDS011;8445;51.270;9.434;2023-03-23T06:27:30;3.00;;;2.45;;
16662;SDS011;8445;51.270;9.434;2023-03-23T06:30:12;2.22;;;1.98;;
16662;SDS011;8445;51.270;9.434;2023-03-23T06:32:41;2.08;;;1.88;;
16662;SDS011;8445;51.270;9.434;2023-03-23T06:35:22;4.32;;;2.22;;
16662;SDS011;8445;51.270;9.434;2023-03-23T06:38:26;3.75;;;2.40;;
16662;SDS011;8445;51.270;9.434;2023-03-23T06:40:54;3.30;;;2.50;;
16662;SDS011;8445;51.270;9.434;2023-03-23T06:43:30;2.50;;;2.28;;
16662;SDS011;8445;51.270;9.434;2023-03-23T06:46:12;5.13;;;2.13;;
16662;SDS011;8445;51.270;9.434;2023-03-23T06:48:58;2.30;;;1.67;;
16662;SDS011;8445;51.270;9.434;2023-03-23T06:51:40;3.60;;;2.05;;
16662;SDS011;8445;51.270;9.434;2023-03-23T06:54:06;2.33;;;1.67;;
16662;SDS011;8445;51.270;9.434;2023-03-23T06:56:36;3.20;;;2.03;;
16662;SDS011;8445;51.270;9.434;2023-03-23T06:59:02;2.90;;;2.05;;
16662;SDS011;8445;51.270;9.434;2023-03-23T07:01:37;4.72;;;2.00;;
16662;SDS011;8445;51.270;9.434;2023-03-23T07:04:04;4.50;;;2.38;;
16662;SDS011;8445;51.270;9.434;2023-03-23T07:06:39;2.83;;;1.70;;
16662;SDS011;8445;51.270;9.434;2023-03-23T07:09:08;5.35;;;1.92;;
16662;SDS011;8445;51.270;9.434;2023-03-23T07:11:36;3.40;;;1.90;;
16662;SDS011;8445;51.270;9.434;2023-03-23T07:14:19;2.08;;;1.60;;
16662;SDS011;8445;51.270;9.434;2023-03-23T07:16:47;2.17;;;1.52;;
16662;SDS011;8445;51.270;9.434;2023-03-23T07:19:13;1.95;;;1.83;;
16662;SDS011;8445;51.270;9.434;2023-03-23T07:21:41;2.28;;;1.77;;
16662;SDS011;8445;51.270;9.434;2023-03-23T07:24:16;2.10;;;1.88;;
16662;SDS011;8445;51.270;9.434;2023-03-23T07:27:06;2.28;;;1.50;;
16662;SDS011;8445;51.270;9.434;2023-03-23T07:29:33;2.10;;;1.90;;
16662;SDS011;8445;51.270;9.434;2023-03-23T07:32:09;2.30;;;1.83;;
16662;SDS011;8445;51.270;9.434;2023-03-23T07:34:37;3.20;;;1.98;;
16662;SDS011;8445;51.270;9.434;2023-03-23T07:37:20;2.58;;;1.58;;
16662;SDS011;8445;51.270;9.434;2023-03-23T07:39:47;2.10;;;1.70;;
16662;SDS011;8445;51.270;9.434;2023-03-23T07:42:18;3.38;;;1.85;;
16662;SDS011;8445;51.270;9.434;2023-03-23T07:45:01;1.80;;;1.70;;
16662;SDS011;8445;51.270;9.434;2023-03-23T07:47:34;2.28;;;1.83;;
16662;SDS011;8445;51.270;9.434;2023-03-23T07:50:04;4.07;;;2.00;;
16662;SDS011;8445;51.270;9.434;2023-03-23T07:52:37;2.25;;;1.70;;
16662;SDS011;8445;51.270;9.434;2023-03-23T07:55:07;2.60;;;1.83;;
16662;SDS011;8445;51.270;9.434;2023-03-23T07:57:50;2.42;;;1.90;;
16662;SDS011;8445;51.270;9.434;2023-03-23T08:00:18;3.38;;;1.92;;
16662;SDS011;8445;51.270;9.434;2023-03-23T08:02:46;2.13;;;1.63;;
16662;SDS011;8445;51.270;9.434;2023-03-23T08:05:23;2.22;;;1.90;;
16662;SDS011;8445;51.270;9.434;2023-03-23T08:08:26;2.25;;;2.05;;
16662;SDS011;8445;51.270;9.434;2023-03-23T08:11:15;3.50;;;1.60;;
16662;SDS011;8445;51.270;9.434;2023-03-23T08:13:57;2.83;;;1.80;;
16662;SDS011;8445;51.270;9.434;2023-03-23T08:17:35;3.55;;;1.67;;
16662;SDS011;8445;51.270;9.434;2023-03-23T08:20:14;2.75;;;2.08;;
16662;SDS011;8445;51.270;9.434;2023-03-23T08:22:59;3.90;;;2.45;;
16662;SDS011;8445;51.270;9.434;2023-03-23T08:25:54;2.47;;;2.28;;
16662;SDS011;8445;51.270;9.434;2023-03-23T08:28:40;2.00;;;1.80;;
16662;SDS011;8445;51.270;9.434;2023-03-23T08:31:44;1.92;;;1.80;;
16662;SDS011;8445;51.270;9.434;2023-03-23T08:34:26;2.42;;;2.20;;
16662;SDS011;8445;51.270;9.434;2023-03-23T08:37:09;2.33;;;1.88;;
16662;SDS011;8445;51.270;9.434;2023-03-23T08:39:57;1.88;;;1.70;;
16662;SDS011;8445;51.270;9.434;2023-03-23T08:42:43;1.65;;;1.55;;
16662;SDS011;8445;51.270;9.434;2023-03-23T08:45:13;2.92;;;1.85;;
16662;SDS011;8445;51.270;9.434;2023-03-23T08:48:09;4.22;;;2.20;;
16662;SDS011;8445;51.270;9.434;2023-03-23T08:50:59;2.20;;;2.00;;
16662;SDS011;8445;51.270;9.434;2023-03-23T08:53:41;1.98;;;1.77;;
16662;SDS011;8445;51.270;9.434;2023-03-23T08:56:16;3.33;;;1.92;;
16662;SDS011;8445;51.270;9.434;2023-03-23T08:59:07;2.80;;;2.25;;
16662;SDS011;8445;51.270;9.434;2023-03-23T09:01:39;2.25;;;1.83;;
16662;SDS011;8445;51.270;9.434;2023-03-23T09:04:19;3.22;;;2.15;;
16662;SDS011;8445;51.270;9.434;2023-03-23T09:07:03;2.47;;;2.03;;
16662;SDS011;8445;51.270;9.434;2023-03-23T09:09:28;1.60;;;1.50;;
16662;SDS011;8445;51.270;9.434;2023-03-23T09:11:54;1.90;;;1.70;;
16662;SDS011;8445;51.270;9.434;2023-03-23T09:14:19;2.25;;;2.05;;
16662;SDS011;8445;51.270;9.434;2023-03-23T09:16:45;2.25;;;1.50;;
16662;SDS011;8445;51.270;9.434;2023-03-23T09:19:11;3.00;;;1.70;;
16662;SDS011;8445;51.270;9.434;2023-03-23T09:21:37;3.35;;;1.52;;
16662;SDS011;8445;51.270;9.434;2023-03-23T09:24:04;3.53;;;1.70;;
16662;SDS011;8445;51.270;9.434;2023-03-23T09:26:30;1.42;;;1.33;;
16662;SDS011;8445;51.270;9.434;2023-03-23T09:29:00;1.65;;;1.55;;
16662;SDS011;8445;51.270;9.434;2023-03-23T09:31:26;2.08;;;1.63;;
16662;SDS011;8445;51.270;9.434;2023-03-23T09:33:53;1.40;;;1.30;;
16662;SDS011;8445;51.270;9.434;2023-03-23T09:36:21;3.53;;;1.27;;
16662;SDS011;8445;51.270;9.434;2023-03-23T09:38:49;4.13;;;1.95;;
16662;SDS011;8445;51.270;9.434;2023-03-23T09:46:48;1.50;;;1.40;;
16662;SDS011;8445;51.270;9.434;2023-03-23T09:49:25;1.23;;;1.13;;
16662;SDS011;8445;51.270;9.434;2023-03-23T09:55:29;2.45;;;1.50;;
16662;SDS011;8445;51.270;9.434;2023-03-23T09:58:20;2.55;;;1.70;;
16662;SDS011;8445;51.270;9.434;2023-03-23T10:04:41;1.55;;;1.35;;
16662;SDS011;8445;51.270;9.434;2023-03-23T10:07:46;1.58;;;1.48;;
16662;SDS011;8445;51.270;9.434;2023-03-23T10:10:52;2.05;;;1.30;;
16662;SDS011;8445;51.270;9.434;2023-03-23T10:16:25;1.58;;;1.20;;
16662;SDS011;8445;51.270;9.434;2023-03-23T10:25:00;1.75;;;1.15;;
16662;SDS011;8445;51.270;9.434;2023-03-23T10:42:37;2.88;;;1.42;;
16662;SDS011;8445;51.270;9.434;2023-03-23T11:03:33;3.67;;;1.42;;
16662;SDS011;8445;51.270;9.434;2023-03-23T11:06:48;2.30;;;1.20;;
16662;SDS011;8445;51.270;9.434;2023-03-23T11:20:19;3.83;;;1.55;;
16662;SDS011;8445;51.270;9.434;2023-03-23T11:26:28;3.00;;;1.05;;
16662;SDS011;8445;51.270;9.434;2023-03-23T11:29:28;1.85;;;1.30;;
16662;SDS011;8445;51.270;9.434;2023-03-23T11:34:31;1.30;;;1.20;;
16662;SDS011;8445;51.270;9.434;2023-03-23T11:40:27;3.38;;;1.27;;
16662;SDS011;8445;51.270;9.434;2023-03-23T11:43:14;1.30;;;1.20;;
16662;SDS011;8445;51.270;9.434;2023-03-23T11:48:44;1.33;;;1.05;;
16662;SDS011;8445;51.270;9.434;2023-03-23T11:55:21;4.28;;;1.45;;
16662;SDS011;8445;51.270;9.434;2023-03-23T12:08:16;4.25;;;1.45;;
16662;SDS011;8445;51.270;9.434;2023-03-23T12:11:07;3.03;;;1.17;;
16662;SDS011;8445;51.270;9.434;2023-03-23T12:17:27;3.33;;;1.30;;
16662;SDS011;8445;51.270;9.434;2023-03-23T12:31:05;5.43;;;1.23;;
16662;SDS011;8445;51.270;9.434;2023-03-23T12:41:31;1.63;;;0.93;;
16662;SDS011;8445;51.270;9.434;2023-03-23T12:44:10;2.00;;;0.98;;
16662;SDS011;8445;51.270;9.434;2023-03-23T12:47:34;3.45;;;1.45;;
16662;SDS011;8445;51.270;9.434;2023-03-23T12:53:18;3.35;;;1.42;;
16662;SDS011;8445;51.270;9.434;2023-03-23T13:04:50;0.90;;;0.90;;
16662;SDS011;8445;51.270;9.434;2023-03-23T13:07:53;2.53;;;1.08;;
16662;SDS011;8445;51.270;9.434;2023-03-23T13:10:29;0.93;;;0.93;;
16662;SDS011;8445;51.270;9.434;2023-03-23T13:13:00;2.10;;;1.00;;
16662;SDS011;8445;51.270;9.434;2023-03-23T13:15:44;2.22;;;1.67;;
16662;SDS011;8445;51.270;9.434;2023-03-23T13:18:34;1.63;;;0.90;;
16662;SDS011;8445;51.270;9.434;2023-03-23T13:21:09;6.15;;;1.20;;
16662;SDS011;8445;51.270;9.434;2023-03-23T13:23:50;1.52;;;1.00;;
16662;SDS011;8445;51.270;9.434;2023-03-23T13:26:28;1.55;;;1.15;;
16662;SDS011;8445;51.270;9.434;2023-03-23T13:31:44;1.75;;;1.33;;
16662;SDS011;8445;51.270;9.434;2023-03-23T13:34:49;2.38;;;1.27;;
16662;SDS011;8445;51.270;9.434;2023-03-23T13:37:30;3.90;;;1.20;;
16662;SDS011;8445;51.270;9.434;2023-03-23T13:40:24;3.03;;;1.02;;
16662;SDS011;8445;51.270;9.434;2023-03-23T13:43:02;2.22;;;1.30;;
16662;SDS011;8445;51.270;9.434;2023-03-23T13:48:27;1.23;;;1.10;;
16662;SDS011;8445;51.270;9.434;2023-03-23T13:50:57;4.22;;;1.10;;
16662;SDS011;8445;51.270;9.434;2023-03-23T13:53:29;0.85;;;0.85;;
16662;SDS011;8445;51.270;9.434;2023-03-23T14:05:11;1.17;;;1.08;;
16662;SDS011;8445;51.270;9.434;2023-03-23T14:08:02;1.67;;;0.90;;
16662;SDS011;8445;51.270;9.434;2023-03-23T14:10:39;0.93;;;0.93;;
16662;SDS011;8445;51.270;9.434;2023-03-23T14:16:01;1.33;;;0.80;;
16662;SDS011;8445;51.270;9.434;2023-03-23T14:18:39;1.98;;;1.33;;
16662;SDS011;8445;51.270;9.434;2023-03-23T14:21:16;1.80;;;1.42;;
16662;SDS011;8445;51.270;9.434;2023-03-23T14:24:06;4.90;;;1.00;;
16662;SDS011;8445;51.270;9.434;2023-03-23T14:26:46;2.15;;;1.08;;
16662;SDS011;8445;51.270;9.434;2023-03-23T14:29:18;2.10;;;1.25;;
16662;SDS011;8445;51.270;9.434;2023-03-23T14:32:06;2.83;;;1.20;;
16662;SDS011;8445;51.270;9.434;2023-03-23T14:34:35;2.17;;;1.10;;
16662;SDS011;8445;51.270;9.434;2023-03-23T14:37:01;0.82;;;0.82;;
16662;SDS011;8445;51.270;9.434;2023-03-23T14:39:28;1.20;;;1.08;;
16662;SDS011;8445;51.270;9.434;2023-03-23T14:42:03;1.20;;;1.00;;
16662;SDS011;8445;51.270;9.434;2023-03-23T14:44:32;1.13;;;1.02;;
16662;SDS011;8445;51.270;9.434;2023-03-23T14:47:22;1.23;;;0.82;;
16662;SDS011;8445;51.270;9.434;2023-03-23T14:50:03;1.08;;;0.93;;
16662;SDS011;8445;51.270;9.434;2023-03-23T14:53:22;1.65;;;1.30;;
16662;SDS011;8445;51.270;9.434;2023-03-23T14:56:00;2.05;;;1.17;;
16662;SDS011;8445;51.270;9.434;2023-03-23T14:59:02;2.00;;;1.25;;
16662;SDS011;8445;51.270;9.434;2023-03-23T15:01:34;2.33;;;1.17;;
16662;SDS011;8445;51.270;9.434;2023-03-23T15:04:17;2.92;;;0.95;;
16662;SDS011;8445;51.270;9.434;2023-03-23T15:06:52;1.45;;;1.00;;
16662;SDS011;8445;51.270;9.434;2023-03-23T15:09:24;1.40;;;1.17;;
16662;SDS011;8445;51.270;9.434;2023-03-23T15:11:56;1.05;;;0.93;;
16662;SDS011;8445;51.270;9.434;2023-03-23T15:17:28;1.20;;;1.10;;
16662;SDS011;8445;51.270;9.434;2023-03-23T15:20:19;1.42;;;1.00;;
16662;SDS011;8445;51.270;9.434;2023-03-23T15:23:07;1.30;;;1.00;;
16662;SDS011;8445;51.270;9.434;2023-03-23T15:25:39;1.08;;;0.98;;
16662;SDS011;8445;51.270;9.434;2023-03-23T15:28:29;1.45;;;0.90;;
16662;SDS011;8445;51.270;9.434;2023-03-23T15:31:11;0.82;;;0.80;;
16662;SDS011;8445;51.270;9.434;2023-03-23T15:37:03;1.48;;;1.02;;
16662;SDS011;8445;51.270;9.434;2023-03-23T15:39:40;1.92;;;1.17;;
16662;SDS011;8445;51.270;9.434;2023-03-23T15:45:26;1.73;;;1.02;;
16662;SDS011;8445;51.270;9.434;2023-03-23T15:47:57;1.50;;;1.40;;
16662;SDS011;8445;51.270;9.434;2023-03-23T15:50:50;7.38;;;1.17;;
16662;SDS011;8445;51.270;9.434;2023-03-23T15:53:23;1.30;;;1.17;;
16662;SDS011;8445;51.270;9.434;2023-03-23T15:56:14;1.40;;;1.02;;
16662;SDS011;8445;51.270;9.434;2023-03-23T15:58:57;1.90;;;1.20;;
16662;SDS011;8445;51.270;9.434;2023-03-23T16:01:51;1.85;;;1.20;;
16662;SDS011;8445;51.270;9.434;2023-03-23T16:04:48;2.03;;;1.08;;
16662;SDS011;8445;51.270;9.434;2023-03-23T16:07:31;1.85;;;1.15;;
16662;SDS011;8445;51.270;9.434;2023-03-23T16:10:06;3.28;;;1.23;;
16662;SDS011;8445;51.270;9.434;2023-03-23T16:12:42;2.10;;;1.25;;
16662;SDS011;8445;51.270;9.434;2023-03-23T16:18:10;2.15;;;1.13;;
16662;SDS011;8445;51.270;9.434;2023-03-23T16:20:53;2.67;;;1.10;;
16662;SDS011;8445;51.270;9.434;2023-03-23T16:23:35;5.72;;;1.35;;
16662;SDS011;8445;51.270;9.434;2023-03-23T16:26:23;2.55;;;1.48;;
16662;SDS011;8445;51.270;9.434;2023-03-23T16:29:09;3.38;;;2.47;;
16662;SDS011;8445;51.270;9.434;2023-03-23T16:32:02;3.10;;;2.00;;
16662;SDS011;8445;51.270;9.434;2023-03-23T16:34:49;2.75;;;2.47;;
16662;SDS011;8445;51.270;9.434;2023-03-23T16:37:31;4.47;;;2.00;;
16662;SDS011;8445;51.270;9.434;2023-03-23T16:40:01;2.80;;;2.33;;
16662;SDS011;8445;51.270;9.434;2023-03-23T16:42:40;3.03;;;2.28;;
16662;SDS011;8445;51.270;9.434;2023-03-23T16:45:19;6.05;;;2.40;;
16662;SDS011;8445;51.270;9.434;2023-03-23T16:47:48;3.63;;;2.45;;
16662;SDS011;8445;51.270;9.434;2023-03-23T16:50:32;4.43;;;2.30;;
16662;SDS011;8445;51.270;9.434;2023-03-23T16:53:04;3.00;;;2.38;;
16662;SDS011;8445;51.270;9.434;2023-03-23T16:56:05;2.38;;;1.80;;
16662;SDS011;8445;51.270;9.434;2023-03-23T16:59:03;3.92;;;2.28;;
16662;SDS011;8445;51.270;9.434;2023-03-23T17:02:16;3.85;;;2.42;;
16662;SDS011;8445;51.270;9.434;2023-03-23T17:04:52;4.68;;;2.55;;
16662;SDS011;8445;51.270;9.434;2023-03-23T17:10:26;2.35;;;2.15;;
16662;SDS011;8445;51.270;9.434;2023-03-23T17:12:58;3.17;;;2.30;;
16662;SDS011;8445;51.270;9.434;2023-03-23T17:15:30;2.55;;;2.35;;
16662;SDS011;8445;51.270;9.434;2023-03-23T17:17:58;3.72;;;2.30;;
16662;SDS011;8445;51.270;9.434;2023-03-23T17:20:28;3.22;;;2.50;;
16662;SDS011;8445;51.270;9.434;2023-03-23T17:23:13;2.83;;;2.10;;
16662;SDS011;8445;51.270;9.434;2023-03-23T17:25:45;2.78;;;2.50;;
16662;SDS011;8445;51.270;9.434;2023-03-23T17:29:12;2.38;;;2.17;;
16662;SDS011;8445;51.270;9.434;2023-03-23T17:31:50;2.17;;;1.80;;
16662;SDS011;8445;51.270;9.434;2023-03-23T17:34:23;7.32;;;2.25;;
16662;SDS011;8445;51.270;9.434;2023-03-23T17:37:04;3.72;;;1.83;;
16662;SDS011;8445;51.270;9.434;2023-03-23T17:39:37;2.05;;;1.80;;
16662;SDS011;8445;51.270;9.434;2023-03-23T17:42:24;2.40;;;1.67;;
16662;SDS011;8445;51.270;9.434;2023-03-23T17:45:14;3.60;;;2.65;;
16662;SDS011;8445;51.270;9.434;2023-03-23T17:47:45;3.15;;;2.30;;
16662;SDS011;8445;51.270;9.434;2023-03-23T17:50:14;4.10;;;2.95;;
16662;SDS011;8445;51.270;9.434;2023-03-23T17:52:39;3.83;;;2.78;;
16662;SDS011;8445;51.270;9.434;2023-03-23T17:55:10;3.80;;;2.75;;
16662;SDS011;8445;51.270;9.434;2023-03-23T17:57:38;2.50;;;2.28;;
16662;SDS011;8445;51.270;9.434;2023-03-23T18:00:07;4.13;;;2.40;;
16662;SDS011;8445;51.270;9.434;2023-03-23T18:02:39;3.55;;;2.50;;
16662;SDS011;8445;51.270;9.434;2023-03-23T18:05:05;4.22;;;2.28;;
16662;SDS011;8445;51.270;9.434;2023-03-23T18:07:32;4.25;;;2.45;;
16662;SDS011;8445;51.270;9.434;2023-03-23T18:09:58;4.80;;;2.20;;
16662;SDS011;8445;51.270;9.434;2023-03-23T18:12:24;3.88;;;2.65;;
16662;SDS011;8445;51.270;9.434;2023-03-23T18:14:56;2.45;;;2.25;;
16662;SDS011;8445;51.270;9.434;2023-03-23T18:17:23;2.67;;;2.38;;
16662;SDS011;8445;51.270;9.434;2023-03-23T18:19:48;2.90;;;2.60;;
16662;SDS011;8445;51.270;9.434;2023-03-23T18:22:14;6.13;;;3.58;;
16662;SDS011;8445;51.270;9.434;2023-03-23T18:24:39;3.28;;;2.40;;
16662;SDS011;8445;51.270;9.434;2023-03-23T18:27:08;3.67;;;2.67;;
16662;SDS011;8445;51.270;9.434;2023-03-23T18:29:41;6.20;;;2.47;;
16662;SDS011;8445;51.270;9.434;2023-03-23T18:32:08;2.85;;;2.58;;
16662;SDS011;8445;51.270;9.434;2023-03-23T18:34:38;4.57;;;2.72;;
16662;SDS011;8445;51.270;9.434;2023-03-23T18:37:30;2.83;;;2.13;;
16662;SDS011;8445;51.270;9.434;2023-03-23T18:39:58;3.60;;;2.25;;
16662;SDS011;8445;51.270;9.434;2023-03-23T18:42:40;3.40;;;2.50;;
16662;SDS011;8445;51.270;9.434;2023-03-23T18:45:38;8.57;;;3.10;;
16662;SDS011;8445;51.270;9.434;2023-03-23T18:48:06;3.17;;;2.90;;
16662;SDS011;8445;51.270;9.434;2023-03-23T18:50:35;5.30;;;3.10;;
16662;SDS011;8445;51.270;9.434;2023-03-23T18:53:13;3.30;;;2.95;;
16662;SDS011;8445;51.270;9.434;2023-03-23T18:55:43;4.07;;;3.13;;
16662;SDS011;8445;51.270;9.434;2023-03-23T18:58:16;3.80;;;3.05;;
16662;SDS011;8445;51.270;9.434;2023-03-23T19:01:00;4.75;;;3.40;;
16662;SDS011;8445;51.270;9.434;2023-03-23T19:03:35;6.10;;;3.38;;
16662;SDS011;8445;51.270;9.434;2023-03-23T19:06:30;5.50;;;2.97;;
16662;SDS011;8445;51.270;9.434;2023-03-23T19:11:47;5.32;;;3.17;;
16662;SDS011;8445;51.270;9.434;2023-03-23T19:14:15;5.50;;;3.28;;
16662;SDS011;8445;51.270;9.434;2023-03-23T19:16:44;3.65;;;2.40;;
16662;SDS011;8445;51.270;9.434;2023-03-23T19:19:30;5.35;;;2.60;;
16662;SDS011;8445;51.270;9.434;2023-03-23T19:22:05;5.13;;;3.03;;
16662;SDS011;8445;51.270;9.434;2023-03-23T19:24:32;4.43;;;3.60;;
16662;SDS011;8445;51.270;9.434;2023-03-23T19:26:57;3.28;;;2.88;;
16662;SDS011;8445;51.270;9.434;2023-03-23T19:29:25;4.72;;;2.90;;
16662;SDS011;8445;51.270;9.434;2023-03-23T19:31:51;5.90;;;3.17;;
16662;SDS011;8445;51.270;9.434;2023-03-23T19:34:17;5.28;;;3.08;;
16662;SDS011;8445;51.270;9.434;2023-03-23T19:36:46;5.30;;;3.03;;